createdAt,value
2019-04-07T00:01:58.343Z,7.20
2019-04-07T00:05:11.247Z,7.10
2019-04-07T00:08:06.832Z,7.00
2019-04-07T00:11:10.570Z,7.00
2019-04-07T00:14:13.904Z,6.90
2019-04-07T00:17:17.872Z,6.80
2019-04-07T00:20:21.091Z,6.80
2019-04-07T00:23:24.300Z,6.80
2019-04-07T00:26:27.900Z,6.80
2019-04-07T00:29:32.423Z,6.80
2019-04-07T00:32:35.618Z,6.60
2019-04-07T00:35:38.923Z,6.50
2019-04-07T00:38:43.782Z,6.40
2019-04-07T00:41:47.493Z,6.40
2019-04-07T00:44:50.849Z,6.40
2019-04-07T00:47:54.320Z,6.30
2019-04-07T00:50:57.757Z,6.20
2019-04-07T00:54:00.991Z,6.20
2019-04-07T00:57:04.433Z,6.10
2019-04-07T01:00:09.612Z,6.10
2019-04-07T01:03:12.994Z,6.10
2019-04-07T01:06:17.563Z,6.10
2019-04-07T01:09:20.845Z,6.00
2019-04-07T01:12:24.763Z,6.00
2019-04-07T01:15:28.133Z,5.80
2019-04-07T01:18:33.831Z,5.80
2019-04-07T01:21:37.117Z,5.70
2019-04-07T01:24:40.661Z,5.60
2019-04-07T01:27:43.981Z,5.60
2019-04-07T01:30:47.193Z,5.50
2019-04-07T01:33:50.270Z,5.40
2019-04-07T01:36:53.487Z,5.40
2019-04-07T01:39:59.221Z,5.30
2019-04-07T01:43:21.854Z,5.30
2019-04-07T01:46:44.497Z,5.30
2019-04-07T01:50:19.313Z,5.20
2019-04-07T01:53:31.045Z,5.10
2019-04-07T01:56:46.424Z,5.00
2019-04-07T02:00:21.533Z,5.00
2019-04-07T02:03:34.102Z,5.00
2019-04-07T02:06:55.451Z,5.00
2019-04-07T02:10:20.965Z,4.90
2019-04-07T02:13:32.874Z,4.80
2019-04-07T02:16:46.524Z,4.80
2019-04-07T02:20:27.988Z,4.70
2019-04-07T02:23:41.469Z,4.70
2019-04-07T02:27:05.218Z,4.70
2019-04-07T02:30:26.955Z,4.70
2019-04-07T02:33:41.470Z,4.70
2019-04-07T02:37:13.897Z,4.60
2019-04-07T02:40:48.824Z,4.60
2019-04-07T02:44:10.804Z,4.60
2019-04-07T02:47:34.094Z,4.60
2019-04-07T02:50:46.617Z,4.60
2019-04-07T02:54:07.755Z,4.50
2019-04-07T02:57:28.112Z,4.40
2019-04-07T03:00:38.015Z,4.30
2019-04-07T03:03:55.638Z,4.30
2019-04-07T03:07:05.549Z,4.20
2019-04-07T03:10:47.442Z,4.20
2019-04-07T03:14:03.850Z,4.10
2019-04-07T03:17:12.114Z,4.10
2019-04-07T03:20:40.689Z,4.10
2019-04-07T03:24:01.551Z,4.10
2019-04-07T03:27:25.915Z,4.10
2019-04-07T03:30:49.496Z,4.10
2019-04-07T03:34:27.721Z,4.00
2019-04-07T03:38:04.938Z,3.90
2019-04-07T03:41:30.674Z,3.90
2019-04-07T03:44:56.803Z,3.80
2019-04-07T03:48:10.914Z,3.70
2019-04-07T03:51:48.078Z,3.70
2019-04-07T03:54:59.962Z,3.60
2019-04-07T03:58:21.255Z,3.60
2019-04-07T04:01:43.556Z,3.60
2019-04-07T04:04:55.565Z,3.50
2019-04-07T04:08:06.063Z,3.50
2019-04-07T04:11:18.235Z,3.40
2019-04-07T04:14:31.965Z,3.30
2019-04-07T04:21:57.354Z,3.20
2019-04-07T04:25:00.921Z,3.10
2019-04-07T04:28:04.927Z,3.10
2019-04-07T04:31:08.260Z,3.00
2019-04-07T04:34:12.026Z,3.00
2019-04-07T04:37:15.359Z,3.00
2019-04-07T04:40:19.105Z,2.90
2019-04-07T04:43:23.303Z,2.90
2019-04-07T04:46:26.701Z,2.90
2019-04-07T04:49:31.577Z,2.90
2019-04-07T04:52:34.907Z,3.00
2019-04-07T04:55:38.062Z,3.00
2019-04-07T04:58:42.398Z,3.10
2019-04-07T05:01:46.022Z,3.10
2019-04-07T05:04:49.705Z,3.10
2019-04-07T05:08:00.789Z,3.20
2019-04-07T05:10:59.109Z,3.30
2019-04-07T05:14:03.798Z,3.40
2019-04-07T05:17:07.384Z,3.40
2019-04-07T05:20:10.995Z,3.50
2019-04-07T05:23:14.250Z,3.50
2019-04-07T05:26:17.443Z,3.60
2019-04-07T05:29:21.238Z,3.60
2019-04-07T05:32:26.829Z,3.70
2019-04-07T05:35:30.118Z,3.80
2019-04-07T05:38:33.349Z,3.90
2019-04-07T05:41:37.517Z,4.00
2019-04-07T05:44:40.601Z,4.10
2019-04-07T05:47:48.210Z,4.20
2019-04-07T05:50:48.846Z,4.30
2019-04-07T05:53:52.653Z,4.50
2019-04-07T05:56:58.625Z,4.70
2019-04-07T06:00:01.362Z,4.80
2019-04-07T06:03:08.227Z,5.00
2019-04-07T06:06:10.449Z,5.20
2019-04-07T06:09:17.729Z,5.40
2019-04-07T06:12:20.321Z,5.70
2019-04-07T06:15:23.580Z,5.90
2019-04-07T06:18:27.012Z,6.10
2019-04-07T06:21:32.373Z,6.40
2019-04-07T06:24:36.039Z,6.60
2019-04-07T06:27:39.416Z,7.10
2019-04-07T06:30:42.890Z,7.50
2019-04-07T06:33:46.832Z,8.00
2019-04-07T06:36:53.638Z,8.50
2019-04-07T06:39:55.780Z,8.80
2019-04-07T06:42:59.121Z,9.20
2019-04-07T06:46:24.627Z,9.60
2019-04-07T06:49:42.771Z,10.00
2019-04-07T06:53:18.890Z,10.30
2019-04-07T06:56:40.124Z,10.60
2019-04-07T07:00:08.181Z,10.80
2019-04-07T07:03:19.562Z,11.10
2019-04-07T07:06:42.230Z,11.20
2019-04-07T07:09:57.818Z,11.50
2019-04-07T07:13:28.784Z,11.80
2019-04-07T07:16:36.101Z,12.10
2019-04-07T07:19:57.369Z,12.30
2019-04-07T07:23:05.926Z,12.70
2019-04-07T07:26:09.835Z,13.10
2019-04-07T07:29:14.761Z,13.60
2019-04-07T07:32:18.089Z,14.00
2019-04-07T07:35:21.265Z,14.60
2019-04-07T07:38:24.653Z,15.20
2019-04-07T07:41:28.028Z,15.70
2019-04-07T07:44:34.337Z,16.10
2019-04-07T07:47:36.325Z,16.50
2019-04-07T07:50:40.510Z,17.00
2019-04-07T07:53:44.155Z,17.70
2019-04-07T07:56:49.899Z,17.80
2019-04-07T07:59:52.374Z,18.10
2019-04-07T08:02:55.897Z,18.70
2019-04-07T08:05:59.097Z,19.00
2019-04-07T08:09:11.163Z,19.40
2019-04-07T08:12:08.375Z,19.90
2019-04-07T08:15:11.666Z,20.40
2019-04-07T08:18:15.713Z,21.00
2019-04-07T08:21:20.402Z,21.10
2019-04-07T08:24:24.673Z,21.70
2019-04-07T08:27:31.224Z,21.90
2019-04-07T08:30:34.133Z,22.10
2019-04-07T08:33:37.454Z,22.50
2019-04-07T08:36:43.500Z,23.00
2019-04-07T08:39:45.774Z,23.30
2019-04-07T08:42:50.185Z,22.80
2019-04-07T08:45:54.634Z,22.90
2019-04-07T08:49:01.696Z,23.20
2019-04-07T08:52:09.095Z,23.10
2019-04-07T08:55:11.057Z,23.30
2019-04-07T08:58:25.117Z,23.20
2019-04-07T09:01:21.041Z,23.10
2019-04-07T09:04:25.201Z,23.20
2019-04-07T09:07:28.717Z,23.60
2019-04-07T09:10:45.150Z,23.70
2019-04-07T09:13:55.844Z,23.50
2019-04-07T09:17:08.311Z,23.90
2019-04-07T09:20:31.357Z,24.50
2019-04-07T09:24:00.306Z,24.20
2019-04-07T09:27:22.471Z,24.70
2019-04-07T09:30:32.631Z,24.70
2019-04-07T09:33:48.930Z,24.80
2019-04-07T09:37:01.045Z,24.80
2019-04-07T09:40:18.635Z,24.70
2019-04-07T09:43:39.257Z,24.50
2019-04-07T09:47:03.045Z,24.60
2019-04-07T09:50:27.839Z,25.10
2019-04-07T09:54:03.004Z,25.30
2019-04-07T09:57:21.203Z,25.60
2019-04-07T10:00:47.737Z,26.40
2019-04-07T10:04:12.099Z,26.80
2019-04-07T10:07:26.110Z,26.70
2019-04-07T10:10:47.255Z,26.50
2019-04-07T10:14:25.899Z,27.00
2019-04-07T10:17:47.233Z,27.30
2019-04-07T10:21:28.072Z,27.20
2019-04-07T10:25:02.707Z,27.80
2019-04-07T10:28:32.260Z,28.10
2019-04-07T10:32:07.747Z,28.20
2019-04-07T10:35:17.919Z,27.80
2019-04-07T10:38:39.718Z,27.60
2019-04-07T10:42:01.494Z,27.60
2019-04-07T10:45:12.009Z,27.70
2019-04-07T10:48:30.095Z,27.80
2019-04-07T10:51:45.947Z,27.50
2019-04-07T10:55:17.817Z,27.70
2019-04-07T10:58:35.045Z,29.00
2019-04-07T11:02:01.315Z,28.50
2019-04-07T11:05:22.819Z,28.20
2019-04-07T11:08:35.608Z,28.70
2019-04-07T11:11:52.347Z,29.10
2019-04-07T11:15:15.750Z,29.60
2019-04-07T11:18:31.538Z,29.40
2019-04-07T11:21:56.918Z,28.90
2019-04-07T11:25:13.007Z,29.10
2019-04-07T11:28:30.620Z,29.90
2019-04-07T11:31:41.617Z,30.00
2019-04-07T11:35:07.657Z,31.00
2019-04-07T11:38:19.826Z,30.70
2019-04-07T11:42:00.973Z,29.80
2019-04-07T11:45:56.080Z,30.30
2019-04-07T11:49:10.170Z,30.60
2019-04-07T11:52:26.396Z,30.90
2019-04-07T11:55:48.624Z,31.30
2019-04-07T11:59:18.301Z,32.10
2019-04-07T12:02:44.622Z,31.70
2019-04-07T12:06:11.612Z,31.90
2019-04-07T12:09:28.301Z,32.30
2019-04-07T12:12:59.136Z,32.90
2019-04-07T12:16:20.385Z,31.80
2019-04-07T12:19:32.138Z,32.10
2019-04-07T12:22:48.011Z,31.20
2019-04-07T12:26:05.178Z,31.50
2019-04-07T12:29:30.713Z,32.10
2019-04-07T12:32:57.655Z,32.70
2019-04-07T12:36:19.005Z,31.50
2019-04-07T12:39:51.294Z,30.60
2019-04-07T12:43:15.518Z,31.30
2019-04-07T12:46:37.664Z,32.70
2019-04-07T12:50:03.012Z,33.20
2019-04-07T12:53:26.376Z,33.10
2019-04-07T12:56:57.633Z,32.30
2019-04-07T13:00:24.141Z,33.10
2019-04-07T13:03:46.192Z,33.60
2019-04-07T13:07:17.057Z,33.60
2019-04-07T13:10:49.228Z,33.50
2019-04-07T13:14:10.642Z,32.10
2019-04-07T13:17:28.115Z,32.80
2019-04-07T13:20:36.742Z,33.40
2019-04-07T13:24:03.568Z,33.60
2019-04-07T13:27:17.122Z,33.80
2019-04-07T13:30:35.616Z,34.00
2019-04-07T13:33:45.811Z,32.90
2019-04-07T13:37:07.985Z,32.40
2019-04-07T13:40:31.658Z,32.60
2019-04-07T13:43:56.002Z,32.70
2019-04-07T13:47:28.701Z,33.30
2019-04-07T13:50:46.920Z,34.50
2019-04-07T13:54:08.418Z,34.20
2019-04-07T13:57:49.467Z,31.90
2019-04-07T14:01:23.837Z,32.10
2019-04-07T14:04:58.755Z,31.70
2019-04-07T14:13:12.682Z,31.90
2019-04-07T14:16:36.616Z,32.30
2019-04-07T14:20:02.061Z,32.10
2019-04-07T14:23:18.522Z,33.40
2019-04-07T14:26:35.649Z,33.40
2019-04-07T14:30:14.555Z,33.20
2019-04-07T14:33:39.277Z,33.20
2019-04-07T14:37:01.936Z,33.50
2019-04-07T14:40:18.853Z,33.50
2019-04-07T14:43:39.399Z,33.40
2019-04-07T14:47:08.722Z,32.30
2019-04-07T14:50:34.625Z,32.70
2019-04-07T14:53:57.304Z,33.20
2019-04-07T14:57:19.045Z,32.90
2019-04-07T15:01:03.301Z,32.10
2019-04-07T15:04:05.174Z,31.70
2019-04-07T15:07:26.512Z,32.00
2019-04-07T15:10:37.302Z,31.90
2019-04-07T15:13:40.593Z,32.30
2019-04-07T15:16:43.959Z,32.40
2019-04-07T15:19:47.418Z,32.10
2019-04-07T15:22:51.722Z,31.30
2019-04-07T15:25:54.997Z,31.10
2019-04-07T15:28:59.136Z,31.40
2019-04-07T15:32:04.946Z,30.50
2019-04-07T15:35:11.811Z,30.60
2019-04-07T15:38:13.121Z,30.60
2019-04-07T15:41:18.231Z,30.70
2019-04-07T15:44:21.492Z,31.00
2019-04-07T15:47:25.421Z,30.70
2019-04-07T15:50:30.470Z,30.50
2019-04-07T15:53:34.518Z,29.80
2019-04-07T15:56:37.978Z,29.50
2019-04-07T15:59:42.517Z,29.20
2019-04-07T16:02:49.373Z,28.90
2019-04-07T16:05:52.310Z,29.10
2019-04-07T16:08:58.825Z,28.30
2019-04-07T16:12:01.680Z,27.60
2019-04-07T16:15:05.880Z,27.20
2019-04-07T16:18:10.607Z,26.80
2019-04-07T16:21:14.314Z,26.70
2019-04-07T16:24:17.831Z,26.50
2019-04-07T16:27:21.146Z,26.30
2019-04-07T16:30:24.806Z,25.60
2019-04-07T16:33:28.145Z,25.30
2019-04-07T16:36:32.482Z,25.10
2019-04-07T16:39:36.256Z,24.70
2019-04-07T16:42:39.610Z,24.60
2019-04-07T16:45:45.611Z,24.50
2019-04-07T16:48:48.018Z,24.20
2019-04-07T16:51:51.541Z,23.80
2019-04-07T16:54:54.796Z,23.50
2019-04-07T16:58:00.998Z,22.60
2019-04-07T17:01:03.380Z,21.70
2019-04-07T17:04:06.654Z,21.20
2019-04-07T17:07:14.136Z,20.60
2019-04-07T17:10:14.983Z,20.10
2019-04-07T17:13:24.720Z,19.80
2019-04-07T17:16:25.010Z,19.60
2019-04-07T17:19:28.490Z,19.30
2019-04-07T17:22:32.593Z,19.10
2019-04-07T17:25:35.965Z,18.90
2019-04-07T17:28:44.474Z,18.60
2019-04-07T17:31:45.582Z,18.40
2019-04-07T17:34:49.760Z,18.20
2019-04-07T17:37:53.614Z,18.00
2019-04-07T17:40:57.909Z,17.80
2019-04-07T17:44:23.091Z,17.60
2019-04-07T17:47:57.226Z,17.40
2019-04-07T17:51:10.114Z,17.20
2019-04-07T17:54:33.002Z,17.00
2019-04-07T17:57:49.919Z,16.60
2019-04-07T18:01:25.029Z,16.40
2019-04-07T18:04:53.737Z,16.20
2019-04-07T18:08:20.245Z,15.90
2019-04-07T18:11:46.904Z,15.70
2019-04-07T18:15:08.855Z,15.50
2019-04-07T18:23:07.461Z,14.90
2019-04-07T18:26:23.570Z,14.50
2019-04-07T18:29:47.032Z,14.50
2019-04-07T18:33:09.810Z,14.40
2019-04-07T18:36:31.113Z,14.40
2019-04-07T18:40:02.123Z,14.40
2019-04-07T18:43:24.533Z,14.30
2019-04-07T18:46:57.177Z,14.30
2019-04-07T18:50:24.007Z,14.10
2019-04-07T18:53:48.523Z,14.00
2019-04-07T18:57:15.239Z,14.00
2019-04-07T19:01:18.311Z,13.80
2019-04-07T19:04:31.584Z,13.60
2019-04-07T19:07:54.811Z,13.50
2019-04-07T19:11:13.095Z,13.40
2019-04-07T19:14:43.496Z,13.40
2019-04-07T19:17:57.403Z,13.20
2019-04-07T19:21:18.370Z,13.20
2019-04-07T19:24:42.754Z,13.10
2019-04-07T19:28:18.854Z,13.00
2019-04-07T19:31:43.402Z,12.90
2019-04-07T19:35:04.637Z,12.80
2019-04-07T19:38:30.425Z,12.70
2019-04-07T19:41:56.342Z,12.60
2019-04-07T19:45:22.360Z,12.50
2019-04-07T19:48:43.248Z,12.40
2019-04-07T19:52:09.768Z,12.30
2019-04-07T19:55:33.212Z,12.20
2019-04-07T19:58:51.380Z,12.00
2019-04-07T20:02:05.831Z,11.80
2019-04-07T20:05:32.198Z,11.60
2019-04-07T20:08:47.034Z,11.30
2019-04-07T20:12:02.840Z,11.20
2019-04-07T20:15:22.619Z,11.10
2019-04-07T20:18:35.343Z,11.00
2019-04-07T20:22:04.727Z,10.70
2019-04-07T20:25:15.927Z,10.50
2019-04-07T20:28:36.389Z,10.50
2019-04-07T20:31:47.513Z,10.40
2019-04-07T20:34:57.666Z,10.30
2019-04-07T20:38:32.196Z,10.20
2019-04-07T20:41:58.766Z,10.10
2019-04-07T20:45:14.221Z,9.90
2019-04-07T20:48:33.855Z,9.80
2019-04-07T20:52:00.719Z,9.70
2019-04-07T20:55:21.995Z,9.70
2019-04-07T20:59:07.934Z,9.50
2019-04-07T21:02:29.219Z,9.30
2019-04-07T21:06:04.009Z,9.20
2019-04-07T21:09:18.175Z,9.20
2019-04-07T21:12:48.320Z,9.10
2019-04-07T21:16:30.042Z,9.00
2019-04-07T21:20:05.434Z,9.00
2019-04-07T21:23:25.837Z,8.90
2019-04-07T21:26:51.967Z,8.80
2019-04-07T21:30:15.126Z,8.70
2019-04-07T21:33:44.294Z,8.70
2019-04-07T21:37:22.982Z,8.60
2019-04-07T21:40:44.327Z,8.50
2019-04-07T21:44:09.441Z,8.40
2019-04-07T21:47:31.058Z,8.20
2019-04-07T21:51:00.218Z,8.10
2019-04-07T21:54:22.905Z,7.80
2019-04-07T21:57:32.293Z,7.70
2019-04-07T22:01:02.909Z,7.50
2019-04-07T22:04:10.439Z,7.40
2019-04-07T22:07:42.285Z,7.40
2019-04-07T22:10:47.893Z,7.30
2019-04-07T22:13:51.209Z,7.20
2019-04-07T22:16:54.727Z,7.10
2019-04-07T22:19:58.522Z,6.90
2019-04-07T22:23:02.868Z,6.80
2019-04-07T22:26:11.398Z,6.80
2019-04-07T22:29:12.085Z,6.70
2019-04-07T22:32:19.235Z,6.60
2019-04-07T22:35:20.994Z,6.50
2019-04-07T22:38:25.239Z,6.50
2019-04-07T22:41:28.485Z,6.40
2019-04-07T22:44:31.616Z,6.30
2019-04-07T22:47:35.737Z,6.30
2019-04-07T22:50:39.801Z,6.20
2019-04-07T22:53:43.354Z,6.10
2019-04-07T22:56:46.685Z,5.90
2019-04-07T22:59:50.414Z,5.90
2019-04-07T23:02:54.109Z,5.80
2019-04-07T23:06:52.319Z,5.80
2019-04-07T23:09:55.965Z,5.70
2019-04-07T23:12:59.418Z,5.60
2019-04-07T23:16:10.796Z,5.50
2019-04-07T23:19:07.685Z,5.40
2019-04-07T23:22:11.530Z,5.30
2019-04-07T23:25:15.501Z,5.30
2019-04-07T23:28:18.849Z,5.20
2019-04-07T23:31:22.302Z,5.20
2019-04-07T23:34:25.481Z,5.10
2019-04-07T23:37:28.697Z,5.00
2019-04-07T23:40:32.234Z,4.90
2019-04-07T23:43:35.561Z,4.80
2019-04-07T23:46:39.338Z,4.80
2019-04-07T23:49:43.628Z,4.70
2019-04-07T23:52:47.550Z,4.70
2019-04-07T23:55:50.729Z,4.70
2019-04-07T23:58:54.173Z,4.70
